CLM3 weather

Lake Muskoka/Alport Bay Seaplane Base
Ontario, Canada

Public forecast

Using degrees Celsius for public forecast. Weather courtesy of forecast.io.

METAR (pilot weather report)

Closest report is Muskoka Airport, 4.4 nm (8.1 km) SE. Retrieved 2019/05/19 15:00 UTC (50 minutes ago):

CYQA 191500Z AUTO 11008KT 060V140 9SM BKN100 16/10 A2983 RMK SLP104 DENSITY ALT 1300FT

TAF (pilot weather forecast)

Closest forecast is Muskoka Airport, 4.4 nm (8.1 km) SE. Retrieved 2019/05/19 14:39 UTC (1 hour ago):

TAF CYQA 191338Z 1914/2002 11006KT P6SM BKN030 BKN080 TEMPO 1914/1922 P6SM -SHRA BKN020 BKN080 BECMG 1916/1918 14012KT FM192200 15012G22KT P6SM BKN040 PROB30 1922/1924 VRB15G30KT 2SM TSRA BR BKN040CB FM200000 15015G25KT 6SM -SHRA BR BKN040 PROB40 2000/2002 VRB20G35KT 1SM +TSRA BR BKN040CB RMK FCST BASED ON AUTO OBS. NXT FCST BY 192000Z